createdAt,value
2023-03-26T00:03:58.588Z,24.70
2023-03-26T00:08:00.669Z,23.63
2023-03-26T00:12:02.869Z,25.73
2023-03-26T00:16:05.354Z,25.27
2023-03-26T00:20:08.592Z,21.40
2023-03-26T00:24:15.234Z,19.70
2023-03-26T00:28:21.540Z,17.05
2023-03-26T00:32:27.886Z,21.85
2023-03-26T00:36:29.691Z,19.92
2023-03-26T00:40:32.152Z,19.42
2023-03-26T00:44:34.985Z,19.73
2023-03-26T00:48:44.962Z,16.60
2023-03-26T00:52:47.669Z,17.80
2023-03-26T00:56:49.485Z,17.88
2023-03-26T01:00:57.353Z,17.48
2023-03-26T01:05:02.979Z,22.02
2023-03-26T01:09:15.792Z,17.70
2023-03-26T01:13:23.425Z,17.98
2023-03-26T01:17:34.570Z,19.60
2023-03-26T01:21:38.881Z,14.82
2023-03-26T01:25:47.846Z,14.15
2023-03-26T01:30:07.527Z,16.00
2023-03-26T01:34:15.405Z,14.82
2023-03-26T01:38:46.747Z,15.60
2023-03-26T01:43:09.085Z,23.02
2023-03-26T01:47:13.356Z,15.55
2023-03-26T01:51:27.290Z,14.90
2023-03-26T01:55:57.366Z,14.20
2023-03-26T02:00:11.558Z,13.68
2023-03-26T02:04:26.500Z,16.10
2023-03-26T02:08:37.001Z,11.82
2023-03-26T02:12:40.685Z,12.95
2023-03-26T02:16:46.774Z,13.38
2023-03-26T02:20:49.058Z,14.23
2023-03-26T02:24:54.957Z,14.77
2023-03-26T02:28:59.465Z,15.43
2023-03-26T02:33:01.637Z,16.13
2023-03-26T02:37:14.060Z,10.55
2023-03-26T02:41:18.421Z,12.85
2023-03-26T02:45:30.076Z,17.52
2023-03-26T02:49:50.645Z,15.60
2023-03-26T02:54:16.829Z,15.50
2023-03-26T02:58:30.457Z,13.05
2023-03-26T03:02:32.815Z,11.80
2023-03-26T03:06:52.950Z,12.15
2023-03-26T03:10:57.691Z,10.85
2023-03-26T03:15:13.093Z,15.10
2023-03-26T03:19:15.748Z,11.93
2023-03-26T03:23:17.981Z,16.83
2023-03-26T03:27:22.227Z,11.73
2023-03-26T03:31:31.956Z,12.05
2023-03-26T03:35:39.955Z,14.30
2023-03-26T03:39:42.121Z,12.80
2023-03-26T03:43:45.349Z,12.05
2023-03-26T03:47:51.879Z,14.50
2023-03-26T03:56:14.733Z,10.23
2023-03-26T04:00:41.635Z,11.20
2023-03-26T04:05:05.687Z,10.85
2023-03-26T04:09:09.948Z,9.90
2023-03-26T04:13:14.195Z,9.80
2023-03-26T04:17:42.502Z,9.93
2023-03-26T04:21:46.195Z,10.27
2023-03-26T04:25:53.502Z,11.70
2023-03-26T04:30:01.935Z,9.38
2023-03-26T04:34:14.358Z,9.80
2023-03-26T04:38:49.396Z,16.65
2023-03-26T04:47:18.462Z,9.45
2023-03-26T04:51:27.046Z,11.23
2023-03-26T04:55:35.499Z,13.10
2023-03-26T04:59:44.797Z,11.95
2023-03-26T05:03:48.509Z,12.50
2023-03-26T05:07:51.446Z,17.92
2023-03-26T05:11:55.104Z,18.00
2023-03-26T05:15:57.487Z,16.52
2023-03-26T05:20:26.359Z,14.82
2023-03-26T05:24:28.884Z,15.80
2023-03-26T05:28:31.007Z,15.50
2023-03-26T05:32:38.165Z,13.02
2023-03-26T05:36:40.704Z,11.07
2023-03-26T05:41:04.616Z,12.20
2023-03-26T05:45:10.343Z,11.15
2023-03-26T05:49:12.433Z,11.45
2023-03-26T05:53:14.656Z,21.35
2023-03-26T05:57:36.769Z,11.00
2023-03-26T06:02:11.144Z,19.48
2023-03-26T06:06:33.264Z,11.68
2023-03-26T06:10:38.816Z,11.70
2023-03-26T06:14:42.820Z,9.77
2023-03-26T06:18:56.623Z,11.77
2023-03-26T06:23:19.064Z,15.82
2023-03-26T06:27:39.962Z,11.85
2023-03-26T06:32:12.436Z,8.70
2023-03-26T06:36:36.938Z,10.75
2023-03-26T06:40:39.362Z,7.97
2023-03-26T06:44:59.839Z,13.23
2023-03-26T06:49:20.946Z,11.95
2023-03-26T06:53:41.609Z,11.55
2023-03-26T06:57:55.073Z,15.18
2023-03-26T07:02:15.553Z,10.27
2023-03-26T07:06:36.639Z,9.15
2023-03-26T07:10:57.318Z,14.65
2023-03-26T07:15:19.282Z,10.15
2023-03-26T07:19:36.909Z,12.65
2023-03-26T07:23:39.458Z,8.55
2023-03-26T07:28:32.936Z,14.70
2023-03-26T07:33:01.494Z,13.43
2023-03-26T07:37:41.245Z,9.90
2023-03-26T07:41:49.822Z,11.00
2023-03-26T07:46:12.777Z,7.55
2023-03-26T07:50:26.765Z,9.45
2023-03-26T07:54:35.024Z,8.55
2023-03-26T07:59:16.043Z,12.57
2023-03-26T08:04:24.710Z,8.68
2023-03-26T08:09:39.801Z,10.38
2023-03-26T08:14:17.726Z,11.45
2023-03-26T08:18:54.269Z,8.93
2023-03-26T08:23:06.480Z,5.93
2023-03-26T08:27:22.613Z,7.22
2023-03-26T08:31:34.935Z,6.47
2023-03-26T08:35:42.646Z,5.65
2023-03-26T08:39:45.087Z,6.53
2023-03-26T08:44:14.154Z,10.50
2023-03-26T08:48:30.302Z,10.75
2023-03-26T08:53:08.598Z,9.90
2023-03-26T08:57:21.793Z,7.20
2023-03-26T09:01:29.688Z,8.55
2023-03-26T09:05:49.595Z,8.98
2023-03-26T09:09:57.545Z,8.43
2023-03-26T09:14:05.647Z,4.40
2023-03-26T09:18:19.925Z,8.48
2023-03-26T09:22:48.452Z,6.97
2023-03-26T09:27:01.147Z,8.88
2023-03-26T09:31:24.387Z,7.35
2023-03-26T09:36:17.387Z,7.60
2023-03-26T09:40:22.623Z,5.50
2023-03-26T09:44:48.561Z,5.47
2023-03-26T09:49:08.700Z,4.63
2023-03-26T09:53:42.403Z,4.63
2023-03-26T09:58:03.941Z,8.00
2023-03-26T10:02:45.409Z,6.70
2023-03-26T10:07:04.203Z,5.47
2023-03-26T10:11:21.459Z,6.07
2023-03-26T10:15:40.055Z,5.45
2023-03-26T10:19:59.825Z,4.28
2023-03-26T10:24:09.161Z,9.60
2023-03-26T10:28:27.240Z,5.03
2023-03-26T10:32:51.863Z,3.78
2023-03-26T10:37:12.744Z,7.32
2023-03-26T10:41:29.572Z,4.30
2023-03-26T10:45:55.151Z,3.83
2023-03-26T10:49:57.133Z,6.43
2023-03-26T10:54:08.132Z,6.20
2023-03-26T10:58:21.909Z,4.10
2023-03-26T11:02:41.394Z,2.58
2023-03-26T11:06:54.130Z,2.13
2023-03-26T11:11:05.361Z,2.40
2023-03-26T11:15:11.722Z,1.23
2023-03-26T11:19:25.284Z,2.67
2023-03-26T11:23:42.567Z,3.05
2023-03-26T11:28:16.384Z,3.20
2023-03-26T11:32:23.891Z,3.83
2023-03-26T11:36:37.701Z,6.30
2023-03-26T11:40:50.573Z,6.28
2023-03-26T11:45:21.779Z,5.47
2023-03-26T11:49:27.042Z,5.72
2023-03-26T11:53:34.590Z,5.45
2023-03-26T11:57:40.409Z,6.13
2023-03-26T12:02:14.955Z,2.83
2023-03-26T12:06:27.500Z,4.45
2023-03-26T12:10:35.033Z,3.22
2023-03-26T12:14:42.856Z,2.80
2023-03-26T12:18:47.604Z,4.75
2023-03-26T12:22:52.034Z,2.95
2023-03-26T12:27:02.747Z,7.35
2023-03-26T12:31:05.356Z,3.88
2023-03-26T12:35:14.235Z,2.25
2023-03-26T12:40:10.246Z,12.60
2023-03-26T12:44:54.391Z,6.50
2023-03-26T12:49:08.957Z,6.15
2023-03-26T12:53:21.929Z,4.28
2023-03-26T12:57:26.472Z,3.28
2023-03-26T13:01:46.948Z,4.68
2023-03-26T13:05:58.257Z,6.15
2023-03-26T13:10:25.292Z,4.45
2023-03-26T13:14:47.614Z,2.45
2023-03-26T13:19:02.172Z,5.72
2023-03-26T13:23:18.037Z,5.50
2023-03-26T13:27:35.820Z,6.57
2023-03-26T13:31:50.007Z,5.28
2023-03-26T13:36:21.901Z,3.88
2023-03-26T13:40:37.383Z,10.98
2023-03-26T13:45:10.846Z,3.33
2023-03-26T13:49:16.538Z,4.68
2023-03-26T13:53:25.480Z,5.50
2023-03-26T13:57:33.203Z,4.47
2023-03-26T14:01:43.343Z,6.00
2023-03-26T14:05:49.626Z,10.93
2023-03-26T14:10:06.332Z,2.35
2023-03-26T14:14:16.590Z,4.35
2023-03-26T14:18:18.597Z,2.47
2023-03-26T14:22:48.632Z,1.65
2023-03-26T14:27:09.537Z,3.05
2023-03-26T14:31:23.662Z,2.40
2023-03-26T14:35:37.807Z,3.42
2023-03-26T14:40:14.699Z,3.40
2023-03-26T14:44:56.367Z,4.90
2023-03-26T14:49:28.595Z,1.85
2023-03-26T14:53:38.066Z,3.47
2023-03-26T14:57:53.934Z,9.50
2023-03-26T15:02:46.205Z,5.03
2023-03-26T15:07:27.196Z,3.13
2023-03-26T15:12:13.154Z,3.92
2023-03-26T15:16:45.433Z,3.22
2023-03-26T15:21:06.824Z,3.75
2023-03-26T15:25:33.611Z,2.38
2023-03-26T15:29:53.779Z,6.28
2023-03-26T15:34:05.133Z,3.53
2023-03-26T15:38:25.936Z,2.70
2023-03-26T15:42:52.680Z,6.78
2023-03-26T15:47:00.139Z,3.35
2023-03-26T15:51:46.565Z,3.35
2023-03-26T15:55:57.290Z,6.88
2023-03-26T16:00:22.574Z,2.88
2023-03-26T16:04:41.735Z,5.82
2023-03-26T16:09:14.795Z,11.40
2023-03-26T16:13:26.820Z,8.05
2023-03-26T16:18:09.174Z,5.50
2023-03-26T16:22:42.757Z,12.18
2023-03-26T16:27:15.644Z,17.95
2023-03-26T16:31:36.894Z,4.25
2023-03-26T16:35:58.547Z,6.80
2023-03-26T16:40:20.814Z,3.58
2023-03-26T16:44:41.066Z,5.25
2023-03-26T16:49:15.682Z,6.53
2023-03-26T16:53:24.082Z,14.85
2023-03-26T16:57:49.596Z,11.57
2023-03-26T17:02:16.339Z,9.70
2023-03-26T17:07:08.784Z,5.32
2023-03-26T17:11:40.866Z,7.82
2023-03-26T17:15:59.560Z,9.63
2023-03-26T17:20:27.164Z,28.05
2023-03-26T17:24:57.064Z,8.70
2023-03-26T17:29:58.063Z,7.82
2023-03-26T17:34:37.672Z,14.57
2023-03-26T17:38:39.702Z,17.38
2023-03-26T17:43:01.477Z,44.95
2023-03-26T17:47:06.595Z,21.23
2023-03-26T17:51:31.626Z,25.10
2023-03-26T17:55:38.728Z,25.13
2023-03-26T17:59:43.091Z,16.77
2023-03-26T18:03:49.673Z,18.13
2023-03-26T18:08:02.056Z,32.15
2023-03-26T18:12:22.874Z,20.95
2023-03-26T18:16:37.244Z,20.73
2023-03-26T18:20:42.621Z,18.38
2023-03-26T18:24:45.350Z,15.55
2023-03-26T18:28:53.189Z,10.55
2023-03-26T18:33:03.130Z,12.07
2023-03-26T18:37:11.201Z,11.73
2023-03-26T18:41:27.423Z,11.43
2023-03-26T18:45:33.596Z,10.48
2023-03-26T18:49:36.772Z,16.83
2023-03-26T18:53:45.339Z,13.38
2023-03-26T18:57:50.453Z,12.27
2023-03-26T19:01:52.614Z,11.60
2023-03-26T19:05:57.080Z,21.58
2023-03-26T19:10:01.277Z,19.55
2023-03-26T19:14:15.201Z,18.50
2023-03-26T19:18:25.477Z,20.33
2023-03-26T19:22:29.424Z,22.02
2023-03-26T19:26:31.915Z,22.33
2023-03-26T19:30:39.966Z,94.95
2023-03-26T19:34:45.832Z,72.50
2023-03-26T19:39:02.699Z,99.47
2023-03-26T19:43:05.553Z,98.78
2023-03-26T19:47:16.439Z,113.20
2023-03-26T19:51:24.234Z,139.15
2023-03-26T19:55:27.170Z,122.88
2023-03-26T19:59:29.500Z,102.32
2023-03-26T20:03:42.948Z,95.30
2023-03-26T20:07:45.526Z,84.63
2023-03-26T20:11:47.773Z,77.18
2023-03-26T20:16:05.551Z,62.20
2023-03-26T20:20:13.204Z,83.00
2023-03-26T20:24:17.766Z,80.15
2023-03-26T20:28:20.613Z,114.85
2023-03-26T20:32:26.426Z,143.68
2023-03-26T20:36:34.008Z,107.00
2023-03-26T20:40:38.613Z,72.10
2023-03-26T20:44:41.244Z,75.63
2023-03-26T20:48:43.308Z,64.85
2023-03-26T20:52:45.317Z,80.50
2023-03-26T20:56:49.122Z,105.72
2023-03-26T21:00:51.420Z,120.18
2023-03-26T21:04:53.929Z,176.35
2023-03-26T21:08:56.264Z,142.93
2023-03-26T21:13:02.425Z,190.85
2023-03-26T21:17:05.409Z,188.30
2023-03-26T21:21:28.058Z,170.35
2023-03-26T21:25:48.487Z,151.05
2023-03-26T21:29:52.615Z,137.43
2023-03-26T21:33:55.340Z,123.65
2023-03-26T21:37:57.848Z,134.18
2023-03-26T21:42:04.961Z,126.35
2023-03-26T21:46:08.725Z,97.95
2023-03-26T21:50:14.022Z,95.00
2023-03-26T21:54:27.970Z,96.95
2023-03-26T21:59:02.433Z,86.97
2023-03-26T22:03:07.319Z,88.65
2023-03-26T22:07:17.910Z,100.90
2023-03-26T22:11:20.130Z,90.60
2023-03-26T22:15:22.235Z,92.05
2023-03-26T22:19:24.364Z,91.45
2023-03-26T22:23:27.932Z,94.47
2023-03-26T22:27:30.230Z,95.53
2023-03-26T22:31:32.340Z,95.18
2023-03-26T22:35:34.398Z,97.07
2023-03-26T22:39:37.814Z,88.57
2023-03-26T22:43:39.860Z,91.25
2023-03-26T22:47:42.123Z,91.75
2023-03-26T22:51:44.392Z,83.95
2023-03-26T22:55:46.492Z,90.15
2023-03-26T22:59:48.580Z,97.55
2023-03-26T23:03:51.013Z,96.38
2023-03-26T23:07:53.228Z,107.50
2023-03-26T23:11:56.470Z,95.70
2023-03-26T23:15:58.651Z,198.73
2023-03-26T23:20:06.027Z,184.85
2023-03-26T23:24:08.204Z,230.20
2023-03-26T23:28:10.219Z,250.85
2023-03-26T23:32:23.403Z,244.32
2023-03-26T23:36:26.373Z,173.98
2023-03-26T23:40:28.396Z,120.45
2023-03-26T23:44:32.148Z,97.45
2023-03-26T23:48:34.159Z,102.20
2023-03-26T23:52:37.489Z,102.20
2023-03-26T23:56:39.567Z,83.63
